createdAt,value
2017-10-17T00:01:26.503Z,12.10
2017-10-17T00:03:54.917Z,12.05
2017-10-17T00:06:23.288Z,12.01
2017-10-17T00:08:51.729Z,12.01
2017-10-17T00:11:20.112Z,12.02
2017-10-17T00:13:48.499Z,12.03
2017-10-17T00:16:17.005Z,11.99
2017-10-17T00:18:46.210Z,11.96
2017-10-17T00:21:14.581Z,11.91
2017-10-17T00:23:43.705Z,11.99
2017-10-17T00:26:12.140Z,11.88
2017-10-17T00:28:40.565Z,11.70
2017-10-17T00:31:08.963Z,11.67
2017-10-17T00:33:37.347Z,11.74
2017-10-17T00:36:10.261Z,11.83
2017-10-17T00:41:43.747Z,11.80
2017-10-17T00:44:12.277Z,11.83
2017-10-17T00:46:41.584Z,11.76
2017-10-17T00:49:12.558Z,11.66
2017-10-17T00:51:40.946Z,11.50
2017-10-17T00:54:09.349Z,11.40
2017-10-17T00:56:38.512Z,11.40
2017-10-17T00:59:07.053Z,11.45
2017-10-17T01:01:36.341Z,11.56
2017-10-17T01:04:05.495Z,11.62
2017-10-17T01:06:33.882Z,11.68
2017-10-17T01:09:02.344Z,11.69
2017-10-17T01:11:30.757Z,11.75
2017-10-17T01:13:59.276Z,11.76
2017-10-17T01:16:27.714Z,11.58
2017-10-17T01:18:56.103Z,11.55
2017-10-17T01:21:24.479Z,11.51
2017-10-17T01:23:59.457Z,11.55
2017-10-17T01:26:27.933Z,11.55
2017-10-17T01:28:59.929Z,11.39
2017-10-17T01:31:28.372Z,11.46
2017-10-17T01:33:56.869Z,11.36
2017-10-17T01:36:25.394Z,11.33
2017-10-17T01:38:53.789Z,11.36
2017-10-17T01:41:22.177Z,11.30
2017-10-17T01:43:56.120Z,11.21
2017-10-17T01:46:24.515Z,11.00
2017-10-17T01:52:15.244Z,11.08
2017-10-17T01:55:00.230Z,11.03
2017-10-17T01:57:34.102Z,11.03
2017-10-17T02:00:05.433Z,10.95
2017-10-17T02:02:41.940Z,11.10
2017-10-17T02:05:10.312Z,11.00
2017-10-17T02:07:44.854Z,10.94
2017-10-17T02:10:24.967Z,10.99
2017-10-17T02:12:53.362Z,11.07
2017-10-17T02:15:21.734Z,11.03
2017-10-17T02:18:00.172Z,10.99
2017-10-17T02:20:28.672Z,10.97
2017-10-17T02:22:57.047Z,10.99
2017-10-17T02:25:40.309Z,10.98
2017-10-17T02:28:20.257Z,10.91
2017-10-17T02:30:51.369Z,10.87
2017-10-17T02:33:22.213Z,10.75
2017-10-17T02:35:51.412Z,10.47
2017-10-17T02:38:19.853Z,10.45
2017-10-17T02:40:49.152Z,10.53
2017-10-17T02:43:29.332Z,10.63
2017-10-17T02:45:57.863Z,10.64
2017-10-17T02:48:42.465Z,10.63
2017-10-17T02:51:10.831Z,10.68
2017-10-17T02:53:39.365Z,10.70
2017-10-17T02:56:07.755Z,10.67
2017-10-17T02:58:36.157Z,10.62
2017-10-17T03:01:31.229Z,10.61
2017-10-17T03:03:59.606Z,10.65
2017-10-17T03:06:27.998Z,10.65
2017-10-17T03:08:56.501Z,10.34
2017-10-17T03:11:25.037Z,10.33
2017-10-17T03:13:58.240Z,10.31
2017-10-17T03:16:26.762Z,10.42
2017-10-17T03:18:55.133Z,10.51
2017-10-17T03:21:26.381Z,10.49
2017-10-17T03:23:58.276Z,10.38
2017-10-17T03:26:26.815Z,10.30
2017-10-17T03:28:55.191Z,10.30
2017-10-17T03:31:23.605Z,10.32
2017-10-17T03:33:55.504Z,10.46
2017-10-17T03:36:24.665Z,10.54
2017-10-17T03:38:54.982Z,10.45
2017-10-17T03:41:39.997Z,10.57
2017-10-17T03:44:22.954Z,10.55
2017-10-17T03:46:51.441Z,10.60
2017-10-17T03:49:28.657Z,10.46
2017-10-17T03:51:57.205Z,10.07
2017-10-17T03:54:32.314Z,10.17
2017-10-17T03:57:00.693Z,9.98
2017-10-17T03:59:46.631Z,10.01
2017-10-17T04:02:15.041Z,10.12
2017-10-17T04:04:53.130Z,10.15
2017-10-17T04:07:33.377Z,10.21
2017-10-17T04:10:10.049Z,10.22
2017-10-17T04:12:38.425Z,10.26
2017-10-17T04:15:09.852Z,10.25
2017-10-17T04:17:40.178Z,10.31
2017-10-17T04:20:22.877Z,10.29
2017-10-17T04:23:01.487Z,10.18
2017-10-17T04:25:37.336Z,10.30
2017-10-17T04:28:41.472Z,10.45
2017-10-17T04:31:18.317Z,10.54
2017-10-17T04:34:02.994Z,10.32
2017-10-17T04:36:49.955Z,10.33
2017-10-17T04:39:18.414Z,10.40
2017-10-17T04:45:23.394Z,10.35
2017-10-17T04:51:49.102Z,10.27
2017-10-17T04:54:26.808Z,10.18
2017-10-17T04:57:01.742Z,10.31
2017-10-17T05:03:04.652Z,10.50
2017-10-17T05:05:59.630Z,10.41
2017-10-17T05:11:34.942Z,10.32
2017-10-17T05:14:29.672Z,10.43
2017-10-17T05:17:09.911Z,10.36
2017-10-17T05:19:51.007Z,10.41
2017-10-17T05:22:22.088Z,10.21
2017-10-17T05:24:54.866Z,10.34
2017-10-17T05:27:43.065Z,10.19
2017-10-17T05:30:49.925Z,10.28
2017-10-17T05:36:47.993Z,10.18
2017-10-17T05:39:16.361Z,9.98
2017-10-17T05:41:44.882Z,10.02
2017-10-17T05:44:21.539Z,9.87
2017-10-17T05:46:49.924Z,9.97
2017-10-17T05:49:25.081Z,9.98
2017-10-17T05:51:54.230Z,9.84
2017-10-17T05:54:22.658Z,9.89
2017-10-17T05:56:52.482Z,9.93
2017-10-17T05:59:20.832Z,9.90
2017-10-17T06:01:49.376Z,9.90
2017-10-17T06:04:17.725Z,9.94
2017-10-17T06:06:46.096Z,10.13
2017-10-17T06:09:14.449Z,10.22
2017-10-17T06:11:42.818Z,10.06
2017-10-17T06:14:11.207Z,10.11
2017-10-17T06:16:40.094Z,10.21
2017-10-17T06:19:08.476Z,10.32
2017-10-17T06:21:36.855Z,10.41
2017-10-17T06:24:06.007Z,10.40
2017-10-17T06:26:34.421Z,10.39
2017-10-17T06:29:02.785Z,10.57
2017-10-17T06:31:31.152Z,10.71
2017-10-17T06:33:59.521Z,10.55
2017-10-17T06:36:27.900Z,10.54
2017-10-17T06:38:56.278Z,10.66
2017-10-17T06:41:24.828Z,10.68
2017-10-17T06:43:53.967Z,10.64
2017-10-17T06:46:22.337Z,10.51
2017-10-17T06:48:50.746Z,10.58
2017-10-17T06:51:19.124Z,10.62
2017-10-17T06:53:47.499Z,10.68
2017-10-17T06:56:15.868Z,10.70
2017-10-17T06:58:44.237Z,10.74
2017-10-17T07:01:12.618Z,10.89
2017-10-17T07:03:40.990Z,11.08
2017-10-17T07:06:09.380Z,11.14
2017-10-17T07:08:37.857Z,11.27
2017-10-17T07:11:06.229Z,11.21
2017-10-17T07:13:34.609Z,11.31
2017-10-17T07:16:02.997Z,11.35
2017-10-17T07:18:31.373Z,11.56
2017-10-17T07:20:59.767Z,11.06
2017-10-17T07:23:28.150Z,11.27
2017-10-17T07:25:56.516Z,11.44
2017-10-17T07:28:24.894Z,11.47
2017-10-17T07:30:53.278Z,11.57
2017-10-17T07:33:21.801Z,11.76
2017-10-17T07:35:50.206Z,11.76
2017-10-17T07:38:18.573Z,11.60
2017-10-17T07:40:47.753Z,11.84
2017-10-17T07:43:16.133Z,11.97
2017-10-17T07:45:44.509Z,12.09
2017-10-17T07:48:12.882Z,12.23
2017-10-17T07:50:41.272Z,12.35
2017-10-17T07:53:09.702Z,12.28
2017-10-17T07:55:38.076Z,12.39
2017-10-17T07:58:06.459Z,12.56
2017-10-17T08:00:34.833Z,12.44
2017-10-17T08:03:03.207Z,12.42
2017-10-17T08:05:31.577Z,12.68
2017-10-17T08:07:59.975Z,12.26
2017-10-17T08:10:28.347Z,12.12
2017-10-17T08:12:56.725Z,12.44
2017-10-17T08:15:25.128Z,12.65
2017-10-17T08:17:53.501Z,12.87
2017-10-17T08:20:21.876Z,13.13
2017-10-17T08:22:50.276Z,13.23
2017-10-17T08:25:18.644Z,13.35
2017-10-17T08:27:47.016Z,13.46
2017-10-17T08:30:15.594Z,13.60
2017-10-17T08:32:44.057Z,13.74
2017-10-17T08:35:12.485Z,13.94
2017-10-17T08:37:40.867Z,13.77
2017-10-17T08:40:09.656Z,13.93
2017-10-17T08:42:38.788Z,13.87
2017-10-17T08:45:07.164Z,13.84
2017-10-17T08:47:35.553Z,14.03
2017-10-17T08:50:03.931Z,14.12
2017-10-17T08:52:32.308Z,14.20
2017-10-17T08:55:00.743Z,14.42
2017-10-17T08:57:29.125Z,14.59
2017-10-17T08:59:57.502Z,14.48
2017-10-17T09:02:26.699Z,14.60
2017-10-17T09:04:55.099Z,14.86
2017-10-17T09:07:23.466Z,14.99
2017-10-17T09:09:51.841Z,15.12
2017-10-17T09:12:20.229Z,15.15
2017-10-17T09:14:48.625Z,14.91
2017-10-17T09:17:17.034Z,15.33
2017-10-17T09:19:45.481Z,15.49
2017-10-17T09:22:13.865Z,15.80
2017-10-17T09:24:42.230Z,16.02
2017-10-17T09:27:10.605Z,15.92
2017-10-17T09:29:38.980Z,16.21
2017-10-17T09:32:07.406Z,15.91
2017-10-17T09:34:35.785Z,16.06
2017-10-17T09:37:04.149Z,16.03
2017-10-17T09:39:32.530Z,16.36
2017-10-17T09:42:00.908Z,16.38
2017-10-17T09:44:29.283Z,16.31
2017-10-17T09:46:57.668Z,16.22
2017-10-17T09:49:26.034Z,16.39
2017-10-17T09:51:54.419Z,16.55
2017-10-17T09:54:22.785Z,16.81
2017-10-17T09:56:51.164Z,16.93
2017-10-17T09:59:19.521Z,17.23
2017-10-17T10:01:48.036Z,17.29
2017-10-17T10:04:16.886Z,17.44
2017-10-17T10:06:45.278Z,17.40
2017-10-17T10:09:13.790Z,17.35
2017-10-17T10:11:42.201Z,17.51
2017-10-17T10:14:10.645Z,17.67
2017-10-17T10:16:39.199Z,17.83
2017-10-17T10:19:07.705Z,17.87
2017-10-17T10:21:36.384Z,17.97
2017-10-17T10:24:05.378Z,17.77
2017-10-17T10:26:33.766Z,17.72
2017-10-17T10:29:02.172Z,18.17
2017-10-17T10:31:30.583Z,18.21
2017-10-17T10:33:59.729Z,18.30
2017-10-17T10:36:28.144Z,18.47
2017-10-17T10:38:56.546Z,18.78
2017-10-17T10:41:24.914Z,18.95
2017-10-17T10:43:53.295Z,19.22
2017-10-17T10:46:21.667Z,19.27
2017-10-17T10:48:50.037Z,19.16
2017-10-17T10:51:18.406Z,19.33
2017-10-17T10:53:46.777Z,19.26
2017-10-17T10:56:15.141Z,19.79
2017-10-17T10:58:43.507Z,19.99
2017-10-17T11:01:11.896Z,19.89
2017-10-17T11:03:40.281Z,20.05
2017-10-17T11:06:08.661Z,19.90
2017-10-17T11:08:37.044Z,19.99
2017-10-17T11:11:05.417Z,19.90
2017-10-17T11:13:33.795Z,20.08
2017-10-17T11:16:02.229Z,20.08
2017-10-17T11:18:30.592Z,20.47
2017-10-17T11:20:59.025Z,20.73
2017-10-17T11:23:27.390Z,21.01
2017-10-17T11:25:55.759Z,21.10
2017-10-17T11:28:24.117Z,21.42
2017-10-17T11:30:52.558Z,21.34
2017-10-17T11:33:21.012Z,21.31
2017-10-17T11:35:49.509Z,21.17
2017-10-17T11:38:17.869Z,21.48
2017-10-17T11:41:04.548Z,21.68
2017-10-17T11:43:53.336Z,21.71
2017-10-17T11:46:21.726Z,21.91
2017-10-17T11:48:50.215Z,21.94
2017-10-17T11:51:18.728Z,21.99
2017-10-17T11:53:47.878Z,22.45
2017-10-17T11:56:16.251Z,22.39
2017-10-17T11:58:44.621Z,22.70
2017-10-17T12:01:12.981Z,23.02
2017-10-17T12:03:41.345Z,22.63
2017-10-17T12:06:09.726Z,22.95
2017-10-17T12:08:38.106Z,23.01
2017-10-17T12:11:06.476Z,23.19
2017-10-17T12:13:34.858Z,23.33
2017-10-17T12:16:03.221Z,23.80
2017-10-17T12:18:31.610Z,23.56
2017-10-17T12:21:00.000Z,23.65
2017-10-17T12:23:28.372Z,23.72
2017-10-17T12:25:57.538Z,23.85
2017-10-17T12:28:25.910Z,23.73
2017-10-17T12:30:54.569Z,23.31
2017-10-17T12:33:24.712Z,23.57
2017-10-17T12:35:53.095Z,23.78
2017-10-17T12:38:21.477Z,23.83
2017-10-17T12:40:49.875Z,24.17
2017-10-17T12:43:18.245Z,24.36
2017-10-17T12:45:46.624Z,23.60
2017-10-17T12:48:14.994Z,23.88
2017-10-17T12:50:43.373Z,24.05
2017-10-17T12:53:11.740Z,24.37
2017-10-17T12:55:40.095Z,24.23
2017-10-17T12:58:08.495Z,24.21
2017-10-17T13:00:36.868Z,24.55
2017-10-17T13:03:05.254Z,24.63
2017-10-17T13:05:33.649Z,24.87
2017-10-17T13:08:02.046Z,24.97
2017-10-17T13:10:30.442Z,24.55
2017-10-17T13:12:58.815Z,24.64
2017-10-17T13:15:27.194Z,24.92
2017-10-17T13:17:55.570Z,24.93
2017-10-17T13:20:23.948Z,24.93
2017-10-17T13:22:52.322Z,25.17
2017-10-17T13:25:21.473Z,25.02
2017-10-17T13:27:49.849Z,24.96
2017-10-17T13:30:18.224Z,24.79
2017-10-17T13:32:46.598Z,24.80
2017-10-17T13:35:14.975Z,24.73
2017-10-17T13:37:43.401Z,24.88
2017-10-17T13:40:12.549Z,25.01
2017-10-17T13:42:40.923Z,24.81
2017-10-17T13:45:09.291Z,24.98
2017-10-17T13:47:37.654Z,24.83
2017-10-17T13:50:06.026Z,24.63
2017-10-17T13:52:34.385Z,24.42
2017-10-17T13:55:02.768Z,24.50
2017-10-17T13:57:31.173Z,24.51
2017-10-17T13:59:59.544Z,24.00
2017-10-17T14:02:27.930Z,24.37
2017-10-17T14:04:56.333Z,24.21
2017-10-17T14:07:24.705Z,24.33
2017-10-17T14:09:53.090Z,23.89
2017-10-17T14:12:21.466Z,23.56
2017-10-17T14:14:50.864Z,23.89
2017-10-17T14:17:19.234Z,24.11
2017-10-17T14:19:47.620Z,24.38
2017-10-17T14:22:16.013Z,24.27
2017-10-17T14:24:44.385Z,24.47
2017-10-17T14:27:12.757Z,24.49
2017-10-17T14:29:41.113Z,24.51
2017-10-17T14:32:09.484Z,24.74
2017-10-17T14:34:37.863Z,24.49
2017-10-17T14:37:06.240Z,24.56
2017-10-17T14:39:34.622Z,24.35
2017-10-17T14:42:02.994Z,24.60
2017-10-17T14:44:32.135Z,24.77
2017-10-17T14:47:00.530Z,24.68
2017-10-17T14:49:28.912Z,24.74
2017-10-17T14:51:57.299Z,24.59
2017-10-17T14:54:25.684Z,25.07
2017-10-17T14:56:54.061Z,25.18
2017-10-17T14:59:22.440Z,25.45
2017-10-17T15:01:50.848Z,25.34
2017-10-17T15:04:19.221Z,25.37
2017-10-17T15:06:47.624Z,25.46
2017-10-17T15:09:16.008Z,24.66
2017-10-17T15:11:44.405Z,24.24
2017-10-17T15:14:12.780Z,24.58
2017-10-17T15:16:41.551Z,24.30
2017-10-17T15:19:09.918Z,24.46
2017-10-17T15:21:38.301Z,24.43
2017-10-17T15:24:06.669Z,24.49
2017-10-17T15:26:35.088Z,24.27
2017-10-17T15:29:03.490Z,24.32
2017-10-17T15:31:31.861Z,24.20
2017-10-17T15:34:00.237Z,24.00
2017-10-17T15:36:28.622Z,23.66
2017-10-17T15:38:57.029Z,23.20
2017-10-17T15:41:26.170Z,23.02
2017-10-17T15:43:54.544Z,22.92
2017-10-17T15:46:22.919Z,22.66
2017-10-17T15:48:51.297Z,22.67
2017-10-17T15:51:19.685Z,22.54
2017-10-17T15:53:48.074Z,22.40
2017-10-17T15:56:16.445Z,22.20
2017-10-17T15:58:44.820Z,22.12
2017-10-17T16:01:13.936Z,21.91
2017-10-17T16:03:42.309Z,21.77
2017-10-17T16:06:10.673Z,21.60
2017-10-17T16:08:39.037Z,21.43
2017-10-17T16:11:07.430Z,21.18
2017-10-17T16:13:35.810Z,20.87
2017-10-17T16:16:04.181Z,19.88
2017-10-17T16:18:32.570Z,20.05
2017-10-17T16:21:00.937Z,20.02
2017-10-17T16:23:29.316Z,19.31
2017-10-17T16:25:57.686Z,19.35
2017-10-17T16:28:26.105Z,19.36
2017-10-17T16:30:54.476Z,19.14
2017-10-17T16:33:22.845Z,18.70
2017-10-17T16:35:51.220Z,18.10
2017-10-17T16:38:19.656Z,18.26
2017-10-17T16:40:48.049Z,18.33
2017-10-17T16:43:16.414Z,18.28
2017-10-17T16:45:44.787Z,18.31
2017-10-17T16:48:13.170Z,18.17
2017-10-17T16:50:42.317Z,18.03
2017-10-17T16:53:10.685Z,17.99
2017-10-17T16:55:39.053Z,17.97
2017-10-17T16:58:07.429Z,17.94
2017-10-17T17:00:35.826Z,17.86
2017-10-17T17:03:04.189Z,17.71
2017-10-17T17:05:32.563Z,17.54
2017-10-17T17:08:00.944Z,17.40
2017-10-17T17:10:29.308Z,17.48
2017-10-17T17:12:57.679Z,17.51
2017-10-17T17:15:26.045Z,17.45
2017-10-17T17:17:54.513Z,17.19
2017-10-17T17:20:23.685Z,16.77
2017-10-17T17:22:52.058Z,16.77
2017-10-17T17:25:20.425Z,16.79
2017-10-17T17:27:48.797Z,16.74
2017-10-17T17:30:17.177Z,16.83
2017-10-17T17:32:45.548Z,16.90
2017-10-17T17:35:13.905Z,16.98
2017-10-17T17:37:42.866Z,16.99
2017-10-17T17:40:11.242Z,17.00
2017-10-17T17:42:39.644Z,16.89
2017-10-17T17:45:08.016Z,16.78
2017-10-17T17:47:37.159Z,16.66
2017-10-17T17:50:05.533Z,16.64
2017-10-17T17:52:34.053Z,16.60
2017-10-17T17:55:02.821Z,16.57
2017-10-17T17:57:32.008Z,16.52
2017-10-17T18:00:00.398Z,16.47
2017-10-17T18:02:29.519Z,16.43
2017-10-17T18:04:57.990Z,16.32
2017-10-17T18:07:26.369Z,15.53
2017-10-17T18:09:54.780Z,15.66
2017-10-17T18:12:23.917Z,15.75
2017-10-17T18:14:52.303Z,15.92
2017-10-17T18:17:20.761Z,16.02
2017-10-17T18:19:49.164Z,16.06
2017-10-17T18:22:17.537Z,16.10
2017-10-17T18:24:45.912Z,16.11
2017-10-17T18:27:14.303Z,16.08
2017-10-17T18:29:42.722Z,15.93
2017-10-17T18:32:11.866Z,15.91
2017-10-17T18:34:40.260Z,15.90
2017-10-17T18:37:08.665Z,15.49
2017-10-17T18:39:39.359Z,15.07
2017-10-17T18:42:07.792Z,15.17
2017-10-17T18:44:36.175Z,15.16
2017-10-17T18:47:07.780Z,15.36
2017-10-17T18:49:36.957Z,15.37
2017-10-17T18:52:05.377Z,15.34
2017-10-17T18:54:33.753Z,14.99
2017-10-17T18:57:02.133Z,14.94
2017-10-17T18:59:30.513Z,15.06
2017-10-17T19:01:58.902Z,15.12
2017-10-17T19:04:28.048Z,15.09
2017-10-17T19:06:57.726Z,15.02
2017-10-17T19:09:26.117Z,15.05
2017-10-17T19:11:54.489Z,14.94
2017-10-17T19:14:22.861Z,14.68
2017-10-17T19:16:51.238Z,14.57
2017-10-17T19:19:19.612Z,14.40
2017-10-17T19:21:48.002Z,14.57
2017-10-17T19:24:16.373Z,14.73
2017-10-17T19:26:44.753Z,14.77
2017-10-17T19:29:13.913Z,14.85
2017-10-17T19:31:42.283Z,14.85
2017-10-17T19:34:10.693Z,14.89
2017-10-17T19:36:39.837Z,14.92
2017-10-17T19:39:08.273Z,14.94
2017-10-17T19:41:36.657Z,14.87
2017-10-17T19:44:05.053Z,14.83
2017-10-17T19:46:33.458Z,14.84
2017-10-17T19:49:01.838Z,14.80
2017-10-17T19:51:30.238Z,14.68
2017-10-17T19:53:59.888Z,14.47
2017-10-17T19:56:28.254Z,14.41
2017-10-17T19:58:57.394Z,14.33
2017-10-17T20:01:25.762Z,14.24
2017-10-17T20:03:54.126Z,14.18
2017-10-17T20:06:22.501Z,14.16
2017-10-17T20:08:50.876Z,14.13
2017-10-17T20:11:20.086Z,14.10
2017-10-17T20:13:48.466Z,14.14
2017-10-17T20:16:16.863Z,14.14
2017-10-17T20:18:45.245Z,14.21
2017-10-17T20:21:13.641Z,14.16
2017-10-17T20:23:42.005Z,14.11
2017-10-17T20:26:10.400Z,13.95
2017-10-17T20:28:38.791Z,13.73
2017-10-17T20:31:08.121Z,13.73
2017-10-17T20:33:36.494Z,13.81
2017-10-17T20:36:04.878Z,13.87
2017-10-17T20:38:33.257Z,13.90
2017-10-17T20:41:20.617Z,14.02
2017-10-17T20:43:49.445Z,14.10
2017-10-17T20:46:17.820Z,14.11
2017-10-17T20:48:46.230Z,13.99
2017-10-17T20:51:14.944Z,13.95
2017-10-17T20:53:45.702Z,13.97
2017-10-17T20:56:14.706Z,14.09
2017-10-17T20:58:43.106Z,14.19
2017-10-17T21:01:11.481Z,14.24
2017-10-17T21:03:39.851Z,14.26
2017-10-17T21:06:08.328Z,14.23
2017-10-17T21:08:36.718Z,14.26
2017-10-17T21:11:05.873Z,14.23
2017-10-17T21:13:34.245Z,14.26
2017-10-17T21:16:02.661Z,14.22
2017-10-17T21:18:31.030Z,14.24
2017-10-17T21:20:59.417Z,14.22
2017-10-17T21:23:27.812Z,14.24
2017-10-17T21:25:56.197Z,14.14
2017-10-17T21:28:24.579Z,14.19
2017-10-17T21:30:53.720Z,14.24
2017-10-17T21:33:22.093Z,14.29
2017-10-17T21:35:50.474Z,14.33
2017-10-17T21:38:18.846Z,14.35
2017-10-17T21:40:47.230Z,14.35
2017-10-17T21:43:15.623Z,14.36
2017-10-17T21:45:43.990Z,14.34
2017-10-17T21:48:12.373Z,14.35
2017-10-17T21:50:40.749Z,14.06
2017-10-17T21:53:09.126Z,14.02
2017-10-17T21:55:37.495Z,14.02
2017-10-17T21:58:06.132Z,14.03
2017-10-17T22:01:07.917Z,14.06
2017-10-17T22:03:36.290Z,14.06
2017-10-17T22:06:04.671Z,13.93
2017-10-17T22:08:33.054Z,13.72
2017-10-17T22:11:01.445Z,13.45
2017-10-17T22:13:29.823Z,13.51
2017-10-17T22:15:58.197Z,13.64
2017-10-17T22:18:26.561Z,13.61
2017-10-17T22:20:54.933Z,13.64
2017-10-17T22:23:23.303Z,13.75
2017-10-17T22:25:51.671Z,13.72
2017-10-17T22:28:21.049Z,13.72
2017-10-17T22:30:49.433Z,13.74
2017-10-17T22:33:17.800Z,13.77
2017-10-17T22:35:46.200Z,13.64
2017-10-17T22:38:14.566Z,13.71
2017-10-17T22:40:42.934Z,13.73
2017-10-17T22:43:11.317Z,13.71
2017-10-17T22:45:40.541Z,13.76
2017-10-17T22:48:08.918Z,13.86
2017-10-17T22:50:37.285Z,13.87
2017-10-17T22:53:05.653Z,13.88
2017-10-17T22:55:34.030Z,13.68
2017-10-17T22:58:02.399Z,13.63
2017-10-17T23:00:30.786Z,13.62
2017-10-17T23:02:59.161Z,13.62
2017-10-17T23:05:27.541Z,13.45
2017-10-17T23:07:55.921Z,13.28
2017-10-17T23:10:24.324Z,13.39
2017-10-17T23:12:52.701Z,13.45
2017-10-17T23:15:21.072Z,13.48
2017-10-17T23:18:07.150Z,13.53
2017-10-17T23:20:38.379Z,13.52
2017-10-17T23:23:06.741Z,13.52
2017-10-17T23:25:35.110Z,13.49
2017-10-17T23:28:03.480Z,13.45
2017-10-17T23:30:31.837Z,13.41
2017-10-17T23:33:00.203Z,13.40
2017-10-17T23:35:28.576Z,13.50
2017-10-17T23:37:56.935Z,13.50
2017-10-17T23:40:25.304Z,13.48
2017-10-17T23:42:53.688Z,13.59
2017-10-17T23:45:22.078Z,13.52
2017-10-17T23:47:50.471Z,13.53
2017-10-17T23:50:18.841Z,13.37
2017-10-17T23:52:47.217Z,13.29
2017-10-17T23:55:15.612Z,13.44
2017-10-17T23:57:43.990Z,13.48
